createdAt,value
2019-05-20T00:01:10.049Z,13.80
2019-05-20T00:03:44.944Z,13.13
2019-05-20T00:06:15.024Z,13.43
2019-05-20T00:08:45.029Z,14.17
2019-05-20T00:11:15.054Z,13.93
2019-05-20T00:13:49.469Z,14.23
2019-05-20T00:16:20.113Z,13.90
2019-05-20T00:18:51.765Z,13.40
2019-05-20T00:21:21.794Z,14.43
2019-05-20T00:23:51.812Z,13.33
2019-05-20T00:26:21.975Z,13.27
2019-05-20T00:28:52.726Z,14.03
2019-05-20T00:31:24.465Z,12.87
2019-05-20T00:33:54.535Z,13.00
2019-05-20T00:36:26.247Z,14.47
2019-05-20T00:39:16.491Z,13.20
2019-05-20T00:41:48.675Z,15.30
2019-05-20T00:44:19.535Z,13.63
2019-05-20T00:46:49.874Z,15.30
2019-05-20T00:49:19.897Z,15.73
2019-05-20T00:51:50.536Z,15.30
2019-05-20T00:54:20.636Z,15.43
2019-05-20T00:56:52.879Z,15.37
2019-05-20T00:59:22.961Z,15.77
2019-05-20T01:01:54.043Z,16.13
2019-05-20T01:04:24.052Z,16.57
2019-05-20T01:06:54.063Z,16.70
2019-05-20T01:09:24.095Z,16.50
2019-05-20T01:11:54.097Z,16.43
2019-05-20T01:14:24.127Z,16.40
2019-05-20T01:16:54.133Z,17.60
2019-05-20T01:19:24.227Z,16.13
2019-05-20T01:21:54.815Z,18.40
2019-05-20T01:24:24.854Z,18.10
2019-05-20T01:26:54.930Z,19.07
2019-05-20T01:29:25.035Z,17.07
2019-05-20T01:31:58.841Z,19.17
2019-05-20T01:34:28.940Z,17.93
2019-05-20T01:36:59.411Z,17.87
2019-05-20T01:39:29.499Z,19.10
2019-05-20T01:41:59.532Z,20.53
2019-05-20T01:44:30.031Z,18.40
2019-05-20T01:47:00.053Z,18.37
2019-05-20T01:49:30.122Z,17.57
2019-05-20T01:52:00.141Z,18.17
2019-05-20T01:54:30.156Z,18.63
2019-05-20T01:57:00.228Z,16.60
2019-05-20T01:59:32.542Z,17.40
2019-05-20T02:02:02.736Z,18.37
2019-05-20T02:04:35.533Z,18.40
2019-05-20T02:07:08.672Z,19.57
2019-05-20T02:09:39.215Z,19.13
2019-05-20T02:12:09.366Z,19.20
2019-05-20T02:14:41.008Z,19.70
2019-05-20T02:17:11.049Z,19.20
2019-05-20T02:19:41.061Z,18.87
2019-05-20T02:22:11.072Z,19.00
2019-05-20T02:24:41.196Z,19.07
2019-05-20T02:27:11.236Z,18.33
2019-05-20T02:29:42.771Z,18.73
2019-05-20T02:32:12.872Z,19.80
2019-05-20T02:34:44.645Z,17.50
2019-05-20T02:37:14.664Z,19.10
2019-05-20T02:39:44.716Z,19.93
2019-05-20T02:42:14.825Z,20.40
2019-05-20T02:44:47.964Z,19.77
2019-05-20T02:47:18.507Z,21.50
2019-05-20T02:49:48.609Z,22.30
2019-05-20T02:52:19.845Z,22.90
2019-05-20T02:54:49.912Z,20.07
2019-05-20T02:57:20.010Z,20.37
2019-05-20T02:59:50.002Z,23.23
2019-05-20T03:02:20.020Z,22.23
2019-05-20T03:04:50.088Z,23.00
2019-05-20T03:07:20.111Z,21.43
2019-05-20T03:09:52.451Z,21.80
2019-05-20T03:12:22.495Z,20.70
2019-05-20T03:14:54.078Z,20.60
2019-05-20T03:17:25.698Z,20.60
2019-05-20T03:19:55.720Z,22.00
2019-05-20T03:22:26.212Z,21.87
2019-05-20T03:24:56.239Z,20.00
2019-05-20T03:27:26.247Z,22.17
2019-05-20T03:29:56.346Z,22.70
2019-05-20T03:32:26.371Z,21.83
2019-05-20T03:34:59.891Z,21.33
2019-05-20T03:37:28.086Z,24.67
2019-05-20T03:39:58.101Z,22.27
2019-05-20T03:42:28.126Z,25.70
2019-05-20T03:44:58.228Z,25.73
2019-05-20T03:47:28.221Z,24.23
2019-05-20T03:49:58.260Z,25.57
2019-05-20T03:52:28.357Z,25.23
2019-05-20T03:54:59.626Z,25.40
2019-05-20T03:57:29.642Z,23.43
2019-05-20T03:59:59.649Z,21.33
2019-05-20T04:02:29.690Z,24.83
2019-05-20T04:05:03.536Z,25.13
2019-05-20T04:07:35.228Z,22.20
2019-05-20T04:10:06.955Z,24.80
2019-05-20T04:12:37.055Z,24.20
2019-05-20T04:15:07.626Z,23.30
2019-05-20T04:17:37.692Z,22.40
2019-05-20T04:20:08.053Z,22.27
2019-05-20T04:22:39.140Z,18.83
2019-05-20T04:25:09.276Z,19.93
2019-05-20T04:27:39.373Z,19.53
2019-05-20T04:30:09.532Z,19.67
2019-05-20T04:32:39.564Z,17.77
2019-05-20T04:35:21.513Z,15.90
2019-05-20T04:37:41.681Z,17.27
2019-05-20T04:40:12.538Z,16.73
2019-05-20T04:42:42.814Z,17.07
2019-05-20T04:45:13.289Z,16.13
2019-05-20T04:47:43.299Z,19.33
2019-05-20T04:50:13.468Z,18.47
2019-05-20T04:52:43.478Z,21.90
2019-05-20T04:55:13.577Z,25.67
2019-05-20T04:57:43.587Z,22.80
2019-05-20T05:00:14.071Z,22.77
2019-05-20T05:02:44.119Z,24.50
2019-05-20T05:05:14.538Z,26.90
2019-05-20T05:07:46.077Z,25.07
2019-05-20T05:10:17.863Z,26.17
2019-05-20T05:12:47.965Z,25.33
2019-05-20T05:15:18.222Z,25.53
2019-05-20T05:17:48.317Z,22.73
2019-05-20T05:20:18.919Z,24.30
2019-05-20T05:22:49.021Z,24.13
2019-05-20T05:25:19.043Z,24.87
2019-05-20T05:27:49.076Z,24.83
2019-05-20T05:30:19.255Z,25.47
2019-05-20T05:32:49.400Z,24.03
2019-05-20T05:35:20.843Z,23.57
2019-05-20T05:37:51.461Z,24.23
2019-05-20T05:40:24.587Z,23.73
2019-05-20T05:42:54.595Z,25.37
2019-05-20T05:45:32.940Z,24.83
2019-05-20T05:48:03.497Z,24.43
2019-05-20T05:50:35.310Z,24.60
2019-05-20T05:53:05.310Z,21.97
2019-05-20T05:55:35.479Z,24.23
2019-05-20T05:58:08.561Z,23.30
2019-05-20T06:00:37.440Z,22.50
2019-05-20T06:03:09.061Z,21.57
2019-05-20T06:05:39.148Z,21.33
2019-05-20T06:08:09.183Z,19.37
2019-05-20T06:10:40.287Z,19.47
2019-05-20T06:13:10.884Z,20.77
2019-05-20T06:15:40.916Z,20.60
2019-05-20T06:18:12.459Z,19.20
2019-05-20T06:20:42.551Z,20.15
2019-05-20T06:23:12.692Z,19.47
2019-05-20T06:25:42.735Z,20.05
2019-05-20T06:28:12.761Z,20.05
2019-05-20T06:30:43.915Z,21.02
2019-05-20T06:33:14.215Z,19.02
2019-05-20T06:35:44.651Z,20.05
2019-05-20T06:38:34.470Z,20.37
2019-05-20T06:41:06.705Z,20.70
2019-05-20T06:43:36.698Z,20.10
2019-05-20T06:46:08.267Z,20.32
2019-05-20T06:48:38.383Z,20.25
2019-05-20T06:51:08.404Z,20.08
2019-05-20T06:53:39.759Z,20.62
2019-05-20T06:56:10.851Z,20.15
2019-05-20T06:58:41.114Z,19.82
2019-05-20T07:01:11.131Z,18.95
2019-05-20T07:03:41.173Z,20.15
2019-05-20T07:06:11.187Z,19.95
2019-05-20T07:08:41.230Z,21.10
2019-05-20T07:11:11.240Z,21.15
2019-05-20T07:13:41.342Z,20.65
2019-05-20T07:16:11.381Z,19.20
2019-05-20T07:18:48.172Z,19.77
2019-05-20T07:21:18.255Z,18.92
2019-05-20T07:23:52.321Z,19.87
2019-05-20T07:26:20.925Z,20.62
2019-05-20T07:28:51.077Z,20.25
2019-05-20T07:31:21.108Z,20.35
2019-05-20T07:33:51.109Z,21.75
2019-05-20T07:36:23.275Z,19.50
2019-05-20T07:38:54.516Z,18.12
2019-05-20T07:41:24.556Z,22.93
2019-05-20T07:43:54.697Z,22.40
2019-05-20T07:46:25.158Z,20.97
2019-05-20T07:48:55.622Z,21.57
2019-05-20T07:51:27.288Z,20.70
2019-05-20T07:53:57.679Z,22.67
2019-05-20T07:56:30.739Z,21.60
2019-05-20T07:59:03.828Z,20.48
2019-05-20T08:01:34.188Z,21.93
2019-05-20T08:04:04.280Z,21.95
2019-05-20T08:06:34.292Z,21.93
2019-05-20T08:09:06.868Z,20.55
2019-05-20T08:11:37.160Z,21.60
2019-05-20T08:14:07.324Z,19.95
2019-05-20T08:16:37.472Z,21.30
2019-05-20T08:19:08.211Z,20.05
2019-05-20T08:21:38.608Z,20.60
2019-05-20T08:24:08.791Z,20.17
2019-05-20T08:26:39.968Z,20.65
2019-05-20T08:29:10.051Z,19.30
2019-05-20T08:31:41.028Z,22.10
2019-05-20T08:34:11.055Z,21.37
2019-05-20T08:36:43.897Z,21.65
2019-05-20T08:39:14.556Z,21.15
2019-05-20T08:41:44.629Z,20.75
2019-05-20T08:44:14.800Z,20.08
2019-05-20T08:46:44.834Z,20.17
2019-05-20T08:49:14.960Z,20.27
2019-05-20T08:51:44.995Z,20.60
2019-05-20T08:54:15.003Z,19.82
2019-05-20T08:56:48.709Z,19.90
2019-05-20T08:59:16.906Z,21.90
2019-05-20T09:01:48.005Z,20.52
2019-05-20T09:04:19.223Z,21.40
2019-05-20T09:06:49.275Z,20.85
2019-05-20T09:09:19.408Z,19.85
2019-05-20T09:11:49.515Z,20.23
2019-05-20T09:14:19.519Z,19.23
2019-05-20T09:16:49.629Z,20.60
2019-05-20T09:19:22.080Z,20.23
2019-05-20T09:21:52.180Z,19.27
2019-05-20T09:24:22.213Z,17.45
2019-05-20T09:26:52.309Z,19.25
2019-05-20T09:29:23.494Z,19.25
2019-05-20T09:31:53.637Z,19.90
2019-05-20T09:34:24.170Z,19.55
2019-05-20T09:36:54.199Z,19.95
2019-05-20T09:39:24.700Z,19.25
2019-05-20T09:41:54.817Z,20.25
2019-05-20T09:44:24.895Z,17.85
2019-05-20T09:46:54.932Z,19.73
2019-05-20T09:49:25.093Z,19.55
2019-05-20T09:51:55.794Z,18.40
2019-05-20T09:54:25.797Z,18.85
2019-05-20T09:56:55.824Z,17.92
2019-05-20T09:59:40.440Z,18.87
2019-05-20T10:01:57.711Z,19.48
2019-05-20T10:04:27.783Z,18.80
2019-05-20T10:06:58.968Z,18.07
2019-05-20T10:09:29.013Z,18.30
2019-05-20T10:11:59.085Z,18.05
2019-05-20T10:14:29.184Z,18.12
2019-05-20T10:16:59.283Z,18.50
2019-05-20T10:19:32.257Z,18.05
2019-05-20T10:22:02.262Z,17.87
2019-05-20T10:24:32.381Z,17.60
2019-05-20T10:27:05.375Z,17.60
2019-05-20T10:29:35.473Z,18.25
2019-05-20T10:32:06.136Z,17.55
2019-05-20T10:34:37.499Z,17.37
2019-05-20T10:37:07.911Z,16.05
2019-05-20T10:39:38.104Z,16.07
2019-05-20T10:42:08.220Z,16.97
2019-05-20T10:44:41.786Z,14.85
2019-05-20T10:47:12.568Z,15.32
2019-05-20T10:49:45.381Z,15.58
2019-05-20T10:52:18.658Z,15.18
2019-05-20T10:54:51.045Z,16.67
2019-05-20T10:57:21.459Z,16.65
2019-05-20T10:59:53.180Z,15.98
2019-05-20T11:02:24.964Z,16.32
2019-05-20T11:04:57.063Z,14.00
2019-05-20T11:07:27.198Z,15.05
2019-05-20T11:09:57.376Z,16.12
2019-05-20T11:12:27.587Z,16.57
2019-05-20T11:14:57.613Z,15.63
2019-05-20T11:17:30.569Z,15.13
2019-05-20T11:20:00.604Z,13.25
2019-05-20T11:22:30.716Z,13.88
2019-05-20T11:25:00.800Z,14.98
2019-05-20T11:27:31.010Z,13.28
2019-05-20T11:30:01.077Z,13.55
2019-05-20T11:32:32.281Z,11.57
2019-05-20T11:35:05.307Z,13.38
2019-05-20T11:37:35.477Z,13.72
2019-05-20T11:40:10.934Z,14.33
2019-05-20T11:42:41.679Z,13.40
2019-05-20T11:45:15.526Z,12.58
2019-05-20T11:47:45.568Z,14.35
2019-05-20T11:50:16.718Z,13.18
2019-05-20T11:52:46.878Z,12.75
2019-05-20T11:55:17.183Z,12.53
2019-05-20T11:57:47.487Z,12.95
2019-05-20T12:00:20.788Z,12.55
2019-05-20T12:02:50.825Z,11.90
2019-05-20T12:05:20.913Z,11.90
2019-05-20T12:07:50.962Z,10.90
2019-05-20T12:10:21.100Z,12.35
2019-05-20T12:12:51.205Z,12.35
2019-05-20T12:15:23.050Z,11.22
2019-05-20T12:17:53.137Z,12.13
2019-05-20T12:20:23.307Z,13.05
2019-05-20T12:22:54.876Z,11.93
2019-05-20T12:25:27.634Z,12.53
2019-05-20T12:27:59.314Z,11.85
2019-05-20T12:30:33.797Z,11.22
2019-05-20T12:33:17.879Z,10.20
2019-05-20T12:35:35.882Z,9.85
2019-05-20T12:38:07.920Z,11.38
2019-05-20T12:40:38.023Z,11.05
2019-05-20T12:43:08.057Z,11.60
2019-05-20T12:45:38.061Z,11.50
2019-05-20T12:48:10.899Z,10.48
2019-05-20T12:50:40.901Z,11.57
2019-05-20T12:53:11.014Z,11.73
2019-05-20T12:55:41.002Z,9.90
2019-05-20T12:58:11.033Z,11.75
2019-05-20T13:00:41.018Z,10.68
2019-05-20T13:03:11.113Z,10.20
2019-05-20T13:05:43.642Z,9.70
2019-05-20T13:08:13.727Z,10.08
2019-05-20T13:10:45.785Z,10.23
2019-05-20T13:13:15.778Z,9.65
2019-05-20T13:15:47.542Z,10.45
2019-05-20T13:18:17.539Z,9.93
2019-05-20T13:20:47.542Z,9.63
2019-05-20T13:23:23.386Z,10.25
2019-05-20T13:25:53.628Z,9.50
2019-05-20T13:28:23.661Z,10.13
2019-05-20T13:30:53.632Z,9.80
2019-05-20T13:33:25.196Z,9.10
2019-05-20T13:35:56.607Z,9.23
2019-05-20T13:38:26.778Z,8.98
2019-05-20T13:40:56.783Z,8.43
2019-05-20T13:43:27.099Z,9.20
2019-05-20T13:45:59.434Z,9.15
2019-05-20T13:48:30.139Z,9.13
2019-05-20T13:51:00.232Z,8.73
2019-05-20T13:53:31.595Z,8.53
2019-05-20T13:56:01.830Z,8.08
2019-05-20T13:58:31.820Z,8.35
2019-05-20T14:01:02.228Z,8.00
2019-05-20T14:03:33.825Z,7.60
2019-05-20T14:06:03.892Z,7.30
2019-05-20T14:08:36.492Z,7.75
2019-05-20T14:11:06.650Z,8.70
2019-05-20T14:13:39.580Z,9.08
2019-05-20T14:16:09.656Z,8.80
2019-05-20T14:18:41.242Z,8.03
2019-05-20T14:21:11.244Z,8.35
2019-05-20T14:23:41.513Z,7.87
2019-05-20T14:26:11.665Z,8.70
2019-05-20T14:28:41.670Z,8.88
2019-05-20T14:31:11.687Z,8.00
2019-05-20T14:33:43.256Z,8.33
2019-05-20T14:36:13.343Z,7.25
2019-05-20T14:38:44.923Z,8.70
2019-05-20T14:41:21.371Z,8.03
2019-05-20T14:43:51.286Z,7.55
2019-05-20T14:46:30.896Z,7.78
2019-05-20T14:49:05.444Z,7.70
2019-05-20T14:51:38.343Z,7.60
2019-05-20T14:54:11.068Z,7.40
2019-05-20T14:56:42.965Z,7.85
2019-05-20T14:59:13.143Z,8.03
2019-05-20T15:01:46.245Z,7.83
2019-05-20T15:04:17.979Z,6.90
2019-05-20T15:06:49.583Z,8.43
2019-05-20T15:09:21.506Z,13.48
2019-05-20T15:11:51.607Z,6.60
2019-05-20T15:14:22.664Z,6.47
2019-05-20T15:16:52.718Z,6.33
2019-05-20T15:19:22.713Z,6.20
2019-05-20T15:21:52.998Z,6.53
2019-05-20T15:24:24.653Z,5.80
2019-05-20T15:26:55.207Z,6.10
2019-05-20T15:29:28.384Z,6.58
2019-05-20T15:31:58.696Z,6.75
2019-05-20T15:34:31.767Z,6.80
2019-05-20T15:37:06.399Z,7.78
2019-05-20T15:39:39.097Z,9.65
2019-05-20T15:42:14.478Z,9.48
2019-05-20T15:44:46.171Z,7.95
2019-05-20T15:47:19.008Z,8.83
2019-05-20T15:49:48.731Z,8.58
2019-05-20T15:52:20.369Z,9.53
2019-05-20T15:54:50.364Z,7.87
2019-05-20T15:57:22.663Z,6.78
2019-05-20T15:59:54.492Z,6.72
2019-05-20T16:02:31.290Z,8.00
2019-05-20T16:05:06.821Z,8.05
2019-05-20T16:07:38.736Z,7.00
2019-05-20T16:10:09.453Z,10.30
2019-05-20T16:12:39.791Z,7.35
2019-05-20T16:15:10.821Z,7.58
2019-05-20T16:17:48.302Z,8.78
2019-05-20T16:20:20.049Z,7.15
2019-05-20T16:22:51.646Z,7.10
2019-05-20T16:25:25.084Z,6.08
2019-05-20T16:27:55.328Z,6.62
2019-05-20T16:30:26.620Z,9.38
2019-05-20T16:32:56.718Z,5.78
2019-05-20T16:35:26.696Z,6.12
2019-05-20T16:37:56.715Z,6.35
2019-05-20T16:40:28.066Z,6.22
2019-05-20T16:42:58.214Z,6.72
2019-05-20T16:45:28.269Z,6.65
2019-05-20T16:47:58.287Z,6.55
2019-05-20T16:50:28.343Z,6.67
2019-05-20T16:52:59.890Z,6.92
2019-05-20T16:55:30.082Z,7.65
2019-05-20T16:58:00.080Z,6.97
2019-05-20T17:00:32.160Z,7.53
2019-05-20T17:03:02.089Z,7.30
2019-05-20T17:05:33.741Z,7.17
2019-05-20T17:08:05.393Z,7.83
2019-05-20T17:10:35.545Z,7.33
2019-05-20T17:13:05.666Z,7.72
2019-05-20T17:15:35.736Z,8.25
2019-05-20T17:18:08.117Z,7.70
2019-05-20T17:20:38.473Z,8.10
2019-05-20T17:23:08.620Z,8.60
2019-05-20T17:25:38.628Z,8.75
2019-05-20T17:28:11.761Z,8.95
2019-05-20T17:30:45.638Z,9.35
2019-05-20T17:33:14.225Z,9.83
2019-05-20T17:35:44.413Z,9.00
2019-05-20T17:38:14.615Z,9.45
2019-05-20T17:40:49.412Z,9.10
2019-05-20T17:43:21.005Z,9.58
2019-05-20T17:45:51.149Z,10.53
2019-05-20T17:48:21.303Z,11.00
2019-05-20T17:50:51.953Z,12.00
2019-05-20T17:53:24.095Z,12.25
2019-05-20T17:55:54.190Z,13.55
2019-05-20T17:58:24.791Z,12.45
2019-05-20T18:00:55.878Z,12.45
2019-05-20T18:03:26.473Z,13.45
2019-05-20T18:05:56.483Z,13.83
2019-05-20T18:08:28.226Z,15.08
2019-05-20T18:10:58.309Z,13.58
2019-05-20T18:13:28.417Z,14.55
2019-05-20T18:15:58.423Z,13.40
2019-05-20T18:18:28.661Z,13.75
2019-05-20T18:20:58.671Z,14.43
2019-05-20T18:23:28.775Z,14.25
2019-05-20T18:25:58.775Z,14.95
2019-05-20T18:28:28.813Z,14.85
2019-05-20T18:31:00.133Z,14.85
2019-05-20T18:33:30.186Z,14.43
2019-05-20T18:36:00.287Z,15.70
2019-05-20T18:38:30.390Z,15.90
2019-05-20T18:41:00.504Z,15.78
2019-05-20T18:43:30.525Z,15.75
2019-05-20T18:46:04.182Z,15.50
2019-05-20T18:48:34.307Z,14.78
2019-05-20T18:51:04.674Z,15.05
2019-05-20T18:53:34.763Z,15.15
2019-05-20T18:56:04.932Z,14.65
2019-05-20T18:58:34.949Z,14.87
2019-05-20T19:01:05.016Z,14.28
2019-05-20T19:03:35.199Z,14.58
2019-05-20T19:06:05.406Z,14.43
2019-05-20T19:08:35.473Z,14.65
2019-05-20T19:11:05.585Z,15.45
2019-05-20T19:13:37.214Z,15.10
2019-05-20T19:16:07.318Z,14.70
2019-05-20T19:18:37.699Z,15.72
2019-05-20T19:21:07.816Z,14.85
2019-05-20T19:23:37.814Z,15.20
2019-05-20T19:26:07.918Z,16.55
2019-05-20T19:28:37.927Z,16.50
2019-05-20T19:31:08.261Z,16.45
2019-05-20T19:33:39.310Z,16.48
2019-05-20T19:36:10.476Z,16.17
2019-05-20T19:38:40.639Z,17.20
2019-05-20T19:41:10.735Z,16.40
2019-05-20T19:43:45.473Z,16.60
2019-05-20T19:46:15.569Z,17.87
2019-05-20T19:48:45.609Z,16.37
2019-05-20T19:51:15.813Z,16.40
2019-05-20T19:53:45.834Z,17.87
2019-05-20T19:56:15.968Z,16.42
2019-05-20T19:58:46.148Z,17.35
2019-05-20T20:01:16.157Z,16.75
2019-05-20T20:03:46.245Z,17.17
2019-05-20T20:06:16.305Z,15.85
2019-05-20T20:08:46.879Z,15.48
2019-05-20T20:11:16.885Z,14.13
2019-05-20T20:13:46.926Z,15.90
2019-05-20T20:16:18.010Z,15.53
2019-05-20T20:18:48.457Z,16.35
2019-05-20T20:21:18.534Z,16.67
2019-05-20T20:23:49.818Z,17.40
2019-05-20T20:26:19.843Z,17.23
2019-05-20T20:28:49.846Z,16.20
2019-05-20T20:31:19.982Z,17.00
2019-05-20T20:33:50.015Z,16.67
2019-05-20T20:36:23.034Z,16.42
2019-05-20T20:38:53.718Z,16.20
2019-05-20T20:41:23.823Z,16.10
2019-05-20T20:43:53.832Z,15.83
2019-05-20T20:46:24.002Z,17.57
2019-05-20T20:48:54.117Z,17.73
2019-05-20T20:51:24.396Z,16.57
2019-05-20T20:53:54.410Z,17.67
2019-05-20T20:56:25.570Z,16.70
2019-05-20T20:59:00.824Z,15.70
2019-05-20T21:01:30.845Z,15.93
2019-05-20T21:04:02.023Z,16.87
2019-05-20T21:06:32.045Z,16.07
2019-05-20T21:09:02.121Z,16.05
2019-05-20T21:11:34.041Z,15.70
2019-05-20T21:14:04.126Z,15.32
2019-05-20T21:16:34.232Z,16.67
2019-05-20T21:19:04.442Z,16.47
2019-05-20T21:21:35.714Z,15.93
2019-05-20T21:24:05.706Z,15.95
2019-05-20T21:26:35.752Z,16.27
2019-05-20T21:29:05.970Z,15.18
2019-05-20T21:31:35.990Z,16.42
2019-05-20T21:34:06.818Z,16.00
2019-05-20T21:36:47.323Z,17.50
2019-05-20T21:39:11.705Z,17.03
2019-05-20T21:41:41.698Z,17.50
2019-05-20T21:44:11.796Z,17.25
2019-05-20T21:46:41.823Z,18.10
2019-05-20T21:49:13.423Z,18.57
2019-05-20T21:51:43.448Z,19.23
2019-05-20T21:54:13.483Z,18.97
2019-05-20T21:56:43.486Z,20.10
2019-05-20T21:59:13.522Z,21.55
2019-05-20T22:01:43.593Z,21.23
2019-05-20T22:04:15.525Z,20.97
2019-05-20T22:06:45.600Z,21.87
2019-05-20T22:09:20.206Z,22.27
2019-05-20T22:11:50.243Z,23.27
2019-05-20T22:14:23.306Z,21.93
2019-05-20T22:16:53.483Z,22.07
2019-05-20T22:19:23.477Z,22.13
2019-05-20T22:22:00.893Z,20.53
2019-05-20T22:24:30.918Z,20.20
2019-05-20T22:27:01.209Z,19.97
2019-05-20T22:29:31.208Z,20.50
2019-05-20T22:32:01.239Z,20.60
2019-05-20T22:34:31.232Z,19.63
2019-05-20T22:37:01.268Z,21.30
2019-05-20T22:39:31.260Z,20.63
2019-05-20T22:42:01.449Z,20.60
2019-05-20T22:44:31.460Z,21.93
2019-05-20T22:47:01.453Z,22.63
2019-05-20T22:49:32.553Z,21.40
2019-05-20T22:52:02.635Z,22.50
2019-05-20T22:54:32.639Z,22.17
2019-05-20T22:57:02.669Z,22.23
2019-05-20T22:59:32.771Z,23.07
2019-05-20T23:02:03.495Z,22.13
2019-05-20T23:04:33.525Z,21.50
2019-05-20T23:07:03.526Z,21.40
2019-05-20T23:09:33.657Z,20.60
2019-05-20T23:12:03.723Z,20.97
2019-05-20T23:14:34.720Z,22.57
2019-05-20T23:17:04.801Z,22.87
2019-05-20T23:19:34.995Z,22.43
2019-05-20T23:22:05.633Z,22.73
2019-05-20T23:24:36.908Z,22.20
2019-05-20T23:27:06.837Z,24.53
2019-05-20T23:29:36.943Z,24.03
2019-05-20T23:32:09.544Z,26.13
2019-05-20T23:34:39.542Z,27.03
2019-05-20T23:37:09.565Z,26.10
2019-05-20T23:39:39.593Z,25.83
2019-05-20T23:42:09.810Z,27.17
2019-05-20T23:44:39.807Z,26.23
2019-05-20T23:47:09.823Z,26.73
2019-05-20T23:49:39.822Z,27.77
2019-05-20T23:52:09.862Z,27.57
2019-05-20T23:54:39.930Z,27.67
2019-05-20T23:57:12.468Z,26.43
2019-05-20T23:59:42.462Z,28.23
